RKPC/CJU METAR and TAF weather

Enter ICAO airport designator
Station Type Date Time Source
RKPC METAR 2020/11/27 03:00 UTC NOAA

RKPC 270300Z 31009KT 270V340 9999 BKN030 BKN100 12/04 Q1027 NOSIG


Station Type Date Time Source
RKPC Decoded METAR 2020/11/27 03:00 UTC NOAA

Cheju International Airport, Korea, South (RKPC) 33-30N 126-30E 28M
Nov 26, 2020 - 10:00 PM EST / 2020.11.27 0300 UTC
Wind: from the NW (310 degrees) at 10 MPH (9 KT) (direction variable):0
Visibility: greater than 7 mile(s):0
Sky conditions: mostly cloudy
Temperature: 53 F (12 C)
Dew Point: 39 F (4 C)
Relative Humidity: 57%
Pressure (altimeter): 30.33 in. Hg (1027 hPa)
ob: RKPC 270300Z 31009KT 270V340 9999 BKN030 BKN100 12/04 Q1027 NOSIG
cycle: 3

Station Type Date Time Source
RKPC TAF 2020/11/26 18:06 UTC NOAA

TAF TAF RKPC 261700Z 2618/2724 35007KT 6000 BKN030 OVC100 TN10/2621Z TX12/2706Z TN08/2721Z
TEMPO 2618/2621 -RA
BECMG 2705/2706 33015G25KT
BECMG 2719/2720 33018G35KT 4200 BR
BECMG 2723/2724 33015G25KT 6000 NSW

Example: see airport list